Etusivu
METAR-TAF:

METAR-TAF

Lentoasemat :

Senoun kansainvälinen lentoasema

Bamako, Mali

Leveyspiiri: 12-32N, Pituuspiiri: 007-57W, korkeus merenpinnasta: 380 m

Tämänhetkinen sää

Tämä raportti tehtiin 43 minuuttia sitten, kello 06.30 UTC
Tuuli 8 kn idästä/koillisesta
Lämpötila 27°C
Kosteus 20%
Ilmanpaine 1012 hPa
Näkyvyys 10 km tai enemmän
ei pilviä alle 1500 m:ssä eikä cumulonimbus-pilviä

METAR: GABS 020630Z 06008KT CAVOK 27/02 Q1012 NOSIG

Aika: 07:13 (07:13 UTC)

Sääennuste

Tämä raportti tehtiin 2 tuntia ja 13 minuuttia sitten, kello 05.00 UTC
Ennuste voimassa 02. päivästä klo 06 UTC - 03. päivään klo 12 UTC
Tuuli 10 kn koillisesta
Näkyvyys 10 km tai enemmän
ei pilviä alle 1500 m:ssä eikä cumulonimbus-pilviä

TAF: GABS 020500Z 0206/0312 04010KT CAVOK

Säähavainnot ja -ennusteet yli 4000 lentoasemalta (METAR- ja TAF-raportit).

Käytössä olevat sääasemat on merkitty karttaan keltaisilla ja punaisilla pisteillä.

Aseta hiiri pisteen päälle nähdäksesi sääaseman nimen.

Klikkaa sitten nähdäksesi säähavainnot ja -ennusteet.

Kartan vaihtaminen: klikkaa mustalla rastilla varustettuja vihreitä pisteitä, niin voit zoomata sisään; viivalla varustettua vihreää pistettä, niin voit zoomata ulos tai vihreitä nuolia, niin pääset viereisille kartoille.


METAR-TAF: